createdAt,value
2023-06-23T00:01:05.434Z,20.83
2023-06-23T00:03:33.060Z,20.63
2023-06-23T00:06:04.961Z,20.58
2023-06-23T00:08:32.508Z,20.68
2023-06-23T00:11:00.165Z,20.82
2023-06-23T00:13:28.391Z,20.83
2023-06-23T00:15:55.955Z,20.87
2023-06-23T00:18:23.578Z,20.88
2023-06-23T00:20:51.136Z,20.90
2023-06-23T00:23:20.038Z,20.86
2023-06-23T00:25:47.792Z,20.97
2023-06-23T00:28:15.578Z,20.72
2023-06-23T00:30:43.199Z,20.76
2023-06-23T00:33:10.798Z,20.75
2023-06-23T00:35:38.540Z,20.83
2023-06-23T00:38:06.152Z,20.91
2023-06-23T00:40:35.375Z,20.88
2023-06-23T00:43:02.977Z,20.87
2023-06-23T00:45:30.866Z,21.00
2023-06-23T00:47:58.786Z,21.03
2023-06-23T00:50:27.292Z,21.09
2023-06-23T00:52:55.409Z,20.92
2023-06-23T00:55:24.170Z,20.99
2023-06-23T00:57:55.366Z,20.92
2023-06-23T01:00:24.853Z,20.88
2023-06-23T01:02:54.808Z,20.98
2023-06-23T01:05:25.925Z,20.91
2023-06-23T01:08:04.909Z,20.93
2023-06-23T01:10:37.770Z,20.90
2023-06-23T01:13:17.625Z,20.68
2023-06-23T01:15:52.119Z,20.76
2023-06-23T01:18:28.518Z,20.56
2023-06-23T01:21:02.297Z,20.68
2023-06-23T01:23:58.130Z,20.55
2023-06-23T01:26:56.525Z,20.41
2023-06-23T01:29:30.136Z,20.48
2023-06-23T01:32:02.925Z,20.53
2023-06-23T01:34:37.328Z,20.40
2023-06-23T01:37:10.913Z,20.44
2023-06-23T01:39:41.845Z,20.37
2023-06-23T01:42:14.929Z,20.40
2023-06-23T01:44:49.428Z,20.43
2023-06-23T01:47:19.458Z,20.58
2023-06-23T01:49:49.646Z,20.36
2023-06-23T01:52:19.185Z,20.44
2023-06-23T01:54:47.713Z,20.27
2023-06-23T01:57:18.219Z,20.37
2023-06-23T01:59:48.668Z,20.51
2023-06-23T02:02:18.211Z,20.50
2023-06-23T02:04:48.926Z,20.51
2023-06-23T02:07:19.120Z,20.43
2023-06-23T02:09:47.770Z,20.45
2023-06-23T02:12:17.896Z,20.20
2023-06-23T02:14:49.181Z,20.34
2023-06-23T02:17:17.225Z,20.35
2023-06-23T02:19:47.819Z,20.48
2023-06-23T02:22:28.378Z,20.36
2023-06-23T02:24:57.454Z,20.36
2023-06-23T02:27:26.218Z,20.25
2023-06-23T02:29:55.782Z,19.61
2023-06-23T02:32:26.581Z,19.92
2023-06-23T02:34:54.303Z,20.03
2023-06-23T02:37:25.882Z,20.30
2023-06-23T02:39:57.830Z,20.42
2023-06-23T02:42:32.675Z,20.45
2023-06-23T02:45:05.443Z,20.37
2023-06-23T02:47:38.672Z,20.24
2023-06-23T02:50:11.283Z,20.46
2023-06-23T02:52:42.525Z,20.38
2023-06-23T02:55:11.459Z,20.21
2023-06-23T02:57:39.838Z,20.20
2023-06-23T03:00:14.171Z,20.17
2023-06-23T03:02:44.441Z,20.16
2023-06-23T03:05:12.397Z,20.18
2023-06-23T03:07:40.328Z,20.36
2023-06-23T03:10:08.853Z,20.28
2023-06-23T03:12:36.752Z,20.25
2023-06-23T03:15:04.827Z,20.27
2023-06-23T03:17:35.456Z,20.23
2023-06-23T03:20:09.265Z,20.24
2023-06-23T03:22:41.379Z,20.33
2023-06-23T03:25:16.301Z,20.34
2023-06-23T03:27:45.516Z,20.36
2023-06-23T03:30:18.934Z,20.35
2023-06-23T03:32:51.296Z,20.36
2023-06-23T03:35:22.637Z,20.49
2023-06-23T03:37:52.905Z,20.48
2023-06-23T03:40:24.193Z,20.45
2023-06-23T03:42:55.775Z,20.46
2023-06-23T03:45:26.464Z,20.46
2023-06-23T03:48:01.029Z,20.38
2023-06-23T03:50:32.190Z,20.20
2023-06-23T03:53:02.863Z,20.07
2023-06-23T03:55:33.349Z,19.93
2023-06-23T03:58:04.482Z,19.84
2023-06-23T04:00:34.006Z,19.90
2023-06-23T04:03:07.084Z,19.94
2023-06-23T04:05:37.134Z,19.93
2023-06-23T04:08:06.303Z,20.02
2023-06-23T04:10:35.772Z,19.85
2023-06-23T04:13:04.845Z,19.95
2023-06-23T04:15:35.918Z,19.91
2023-06-23T04:18:07.646Z,19.97
2023-06-23T04:20:36.474Z,20.16
2023-06-23T04:23:06.527Z,20.10
2023-06-23T04:25:34.362Z,20.22
2023-06-23T04:28:06.166Z,20.14
2023-06-23T04:30:36.542Z,20.29
2023-06-23T04:33:05.808Z,20.20
2023-06-23T04:35:33.860Z,20.16
2023-06-23T04:38:04.605Z,20.23
2023-06-23T04:40:37.118Z,20.18
2023-06-23T04:43:10.565Z,20.26
2023-06-23T04:45:42.651Z,20.40
2023-06-23T04:48:14.702Z,20.28
2023-06-23T04:50:44.635Z,20.34
2023-06-23T04:53:17.810Z,20.39
2023-06-23T04:55:49.927Z,20.45
2023-06-23T04:58:19.235Z,20.52
2023-06-23T05:00:49.040Z,20.30
2023-06-23T05:03:20.481Z,20.36
2023-06-23T05:05:52.072Z,20.35
2023-06-23T05:08:20.292Z,20.42
2023-06-23T05:10:48.588Z,20.29
2023-06-23T05:13:18.494Z,20.39
2023-06-23T05:15:48.116Z,20.45
2023-06-23T05:18:18.863Z,20.60
2023-06-23T05:20:48.230Z,20.59
2023-06-23T05:23:19.470Z,20.74
2023-06-23T05:25:51.482Z,20.74
2023-06-23T05:28:21.771Z,20.75
2023-06-23T05:30:50.688Z,20.84
2023-06-23T05:33:21.024Z,20.88
2023-06-23T05:35:50.253Z,20.91
2023-06-23T05:38:20.548Z,20.88
2023-06-23T05:40:48.219Z,20.82
2023-06-23T05:43:15.884Z,20.86
2023-06-23T05:45:43.567Z,20.99
2023-06-23T05:48:17.815Z,21.03
2023-06-23T05:50:49.183Z,20.93
2023-06-23T05:53:20.831Z,21.08
2023-06-23T05:56:03.842Z,21.27
2023-06-23T05:58:35.711Z,21.29
2023-06-23T06:01:09.331Z,21.40
2023-06-23T06:03:40.098Z,21.44
2023-06-23T06:06:09.723Z,21.58
2023-06-23T06:08:40.150Z,21.66
2023-06-23T06:11:10.472Z,21.70
2023-06-23T06:13:43.119Z,21.64
2023-06-23T06:16:12.690Z,21.49
2023-06-23T06:18:41.684Z,21.62
2023-06-23T06:21:12.530Z,21.64
2023-06-23T06:23:41.434Z,21.48
2023-06-23T06:26:10.986Z,21.12
2023-06-23T06:28:40.756Z,21.54
2023-06-23T06:31:09.833Z,21.51
2023-06-23T06:33:39.438Z,21.44
2023-06-23T06:36:10.963Z,21.39
2023-06-23T06:38:39.715Z,21.62
2023-06-23T06:41:09.006Z,21.21
2023-06-23T06:43:37.399Z,21.35
2023-06-23T06:46:08.131Z,21.33
2023-06-23T06:48:36.699Z,21.36
2023-06-23T06:51:06.428Z,21.33
2023-06-23T06:53:35.650Z,21.80
2023-06-23T06:56:03.566Z,22.15
2023-06-23T06:58:31.728Z,22.38
2023-06-23T07:01:00.265Z,22.60
2023-06-23T07:03:29.051Z,22.65
2023-06-23T07:05:56.691Z,22.56
2023-06-23T07:08:24.345Z,22.42
2023-06-23T07:10:53.258Z,21.78
2023-06-23T07:13:20.826Z,22.03
2023-06-23T07:15:48.587Z,22.18
2023-06-23T07:18:16.683Z,22.13
2023-06-23T07:20:44.581Z,22.15
2023-06-23T07:23:12.276Z,21.81
2023-06-23T07:25:39.979Z,21.72
2023-06-23T07:28:08.982Z,21.79
2023-06-23T07:30:38.813Z,21.58
2023-06-23T07:33:06.522Z,21.71
2023-06-23T07:35:34.317Z,21.88
2023-06-23T07:38:02.638Z,22.11
2023-06-23T07:40:30.498Z,21.95
2023-06-23T07:42:58.223Z,21.99
2023-06-23T07:45:27.109Z,21.52
2023-06-23T07:47:54.683Z,21.93
2023-06-23T07:50:22.313Z,21.96
2023-06-23T07:52:54.511Z,21.77
2023-06-23T07:55:22.222Z,21.89
2023-06-23T07:57:50.721Z,21.43
2023-06-23T08:00:19.201Z,21.65
2023-06-23T08:02:48.170Z,22.13
2023-06-23T08:05:15.889Z,22.36
2023-06-23T08:07:45.853Z,22.31
2023-06-23T08:10:14.105Z,22.47
2023-06-23T08:12:41.812Z,22.31
2023-06-23T08:15:10.539Z,22.35
2023-06-23T08:17:38.398Z,22.40
2023-06-23T08:20:08.749Z,22.67
2023-06-23T08:22:36.289Z,22.82
2023-06-23T08:25:05.289Z,22.80
2023-06-23T08:27:32.899Z,22.47
2023-06-23T08:30:00.564Z,22.94
2023-06-23T08:32:28.147Z,22.75
2023-06-23T08:34:55.779Z,22.85
2023-06-23T08:37:24.750Z,22.90
2023-06-23T08:39:52.419Z,22.83
2023-06-23T08:42:21.299Z,23.01
2023-06-23T08:44:50.686Z,23.09
2023-06-23T08:47:22.099Z,22.92
2023-06-23T08:49:50.520Z,23.85
2023-06-23T08:52:18.553Z,24.22
2023-06-23T08:54:47.601Z,24.05
2023-06-23T08:57:15.437Z,23.75
2023-06-23T08:59:43.078Z,23.23
2023-06-23T09:02:10.678Z,23.81
2023-06-23T09:04:38.306Z,23.88
2023-06-23T09:07:06.724Z,24.08
2023-06-23T09:09:35.252Z,24.10
2023-06-23T09:12:05.107Z,24.18
2023-06-23T09:14:33.862Z,23.99
2023-06-23T09:17:02.139Z,24.13
2023-06-23T09:19:31.240Z,24.04
2023-06-23T09:21:59.319Z,23.86
2023-06-23T09:24:40.237Z,23.88
2023-06-23T09:27:09.433Z,23.62
2023-06-23T09:29:38.370Z,24.15
2023-06-23T09:32:07.211Z,24.55
2023-06-23T09:34:35.644Z,24.48
2023-06-23T09:37:10.440Z,24.22
2023-06-23T09:39:39.389Z,24.52
2023-06-23T09:42:13.014Z,24.30
2023-06-23T09:44:42.261Z,24.18
2023-06-23T09:47:10.391Z,24.27
2023-06-23T09:49:41.742Z,24.61
2023-06-23T09:52:11.146Z,25.25
2023-06-23T09:54:40.611Z,25.57
2023-06-23T09:57:10.852Z,25.81
2023-06-23T09:59:40.092Z,25.83
2023-06-23T10:02:08.161Z,26.06
2023-06-23T10:04:36.628Z,25.67
2023-06-23T10:07:21.261Z,25.62
2023-06-23T10:09:57.051Z,25.66
2023-06-23T10:12:33.287Z,25.39
2023-06-23T10:15:00.984Z,25.37
2023-06-23T10:17:28.589Z,25.29
2023-06-23T10:19:57.220Z,25.14
2023-06-23T10:22:25.086Z,25.31
2023-06-23T10:24:54.095Z,25.21
2023-06-23T10:27:24.840Z,25.18
2023-06-23T10:29:55.744Z,25.57
2023-06-23T10:32:25.022Z,25.37
2023-06-23T10:34:53.858Z,25.52
2023-06-23T10:37:35.279Z,25.64
2023-06-23T10:40:15.268Z,25.78
2023-06-23T10:42:45.216Z,25.91
2023-06-23T10:45:14.270Z,25.25
2023-06-23T10:47:42.367Z,24.48
2023-06-23T10:50:11.743Z,25.06
2023-06-23T10:52:39.436Z,25.39
2023-06-23T10:55:36.024Z,25.20
2023-06-23T10:58:11.255Z,25.49
2023-06-23T11:00:40.150Z,25.78
2023-06-23T11:03:10.666Z,26.14
2023-06-23T11:05:43.367Z,26.38
2023-06-23T11:08:13.348Z,26.31
2023-06-23T11:10:48.944Z,26.65
2023-06-23T11:13:16.817Z,26.82
2023-06-23T11:15:54.150Z,26.84
2023-06-23T11:18:23.002Z,26.93
2023-06-23T11:20:51.925Z,26.60
2023-06-23T11:23:20.300Z,26.54
2023-06-23T11:25:49.395Z,26.59
2023-06-23T11:28:31.107Z,26.36
2023-06-23T11:31:14.409Z,26.55
2023-06-23T11:33:43.729Z,26.55
2023-06-23T11:36:13.155Z,26.65
2023-06-23T11:38:42.454Z,26.75
2023-06-23T11:41:10.599Z,26.58
2023-06-23T11:43:39.648Z,26.82
2023-06-23T11:46:12.917Z,26.61
2023-06-23T11:48:41.339Z,26.73
2023-06-23T11:51:10.438Z,27.06
2023-06-23T11:53:41.270Z,27.22
2023-06-23T11:56:09.865Z,27.29
2023-06-23T11:58:37.938Z,27.38
2023-06-23T12:01:05.710Z,27.57
2023-06-23T12:03:36.331Z,27.60
2023-06-23T12:06:04.156Z,27.58
2023-06-23T12:08:31.758Z,28.01
2023-06-23T12:10:59.325Z,28.08
2023-06-23T12:13:27.178Z,28.11
2023-06-23T12:15:58.966Z,27.41
2023-06-23T12:18:26.729Z,27.51
2023-06-23T12:20:55.710Z,27.41
2023-06-23T12:23:23.725Z,27.75
2023-06-23T12:25:52.018Z,28.08
2023-06-23T12:28:21.008Z,28.54
2023-06-23T12:30:50.946Z,28.37
2023-06-23T12:33:21.536Z,28.06
2023-06-23T12:36:01.623Z,27.90
2023-06-23T12:38:30.224Z,27.61
2023-06-23T12:41:14.937Z,28.13
2023-06-23T12:43:43.395Z,28.58
2023-06-23T12:46:12.365Z,28.77
2023-06-23T12:48:40.825Z,28.17
2023-06-23T12:51:09.859Z,27.80
2023-06-23T12:53:37.755Z,28.00
2023-06-23T12:56:05.632Z,28.36
2023-06-23T12:58:33.162Z,28.59
2023-06-23T13:01:03.498Z,28.99
2023-06-23T13:03:31.122Z,29.35
2023-06-23T13:05:59.847Z,29.09
2023-06-23T13:08:29.086Z,29.24
2023-06-23T13:10:56.669Z,29.51
2023-06-23T13:13:24.249Z,29.78
2023-06-23T13:15:52.282Z,29.91
2023-06-23T13:18:19.902Z,29.88
2023-06-23T13:20:47.488Z,29.85
2023-06-23T13:23:15.110Z,30.00
2023-06-23T13:25:44.359Z,29.42
2023-06-23T13:28:12.010Z,29.87
2023-06-23T13:30:39.529Z,30.35
2023-06-23T13:33:07.419Z,30.20
2023-06-23T13:35:35.619Z,30.11
2023-06-23T13:38:03.459Z,30.53
2023-06-23T13:40:31.106Z,30.57
2023-06-23T13:43:00.742Z,30.70
2023-06-23T13:45:28.941Z,30.70
2023-06-23T13:47:56.627Z,31.13
2023-06-23T13:50:24.236Z,31.72
2023-06-23T13:52:51.806Z,31.52
2023-06-23T13:55:19.409Z,31.58
2023-06-23T13:57:47.160Z,31.74
2023-06-23T14:00:17.041Z,31.95
2023-06-23T14:02:44.678Z,32.18
2023-06-23T14:05:15.163Z,32.38
2023-06-23T14:07:42.956Z,32.58
2023-06-23T14:10:11.219Z,32.51
2023-06-23T14:12:38.778Z,32.41
2023-06-23T14:15:07.911Z,32.40
2023-06-23T14:17:36.900Z,32.75
2023-06-23T14:20:05.611Z,33.08
2023-06-23T14:22:33.173Z,33.11
2023-06-23T14:25:00.735Z,33.50
2023-06-23T14:27:29.150Z,33.51
2023-06-23T14:29:57.127Z,33.34
2023-06-23T14:32:24.856Z,32.98
2023-06-23T14:34:53.894Z,32.54
2023-06-23T14:37:21.437Z,32.55
2023-06-23T14:39:49.013Z,32.07
2023-06-23T14:42:16.614Z,31.83
2023-06-23T14:44:44.172Z,31.33
2023-06-23T14:47:11.752Z,31.83
2023-06-23T14:49:39.390Z,31.66
2023-06-23T14:52:08.603Z,31.35
2023-06-23T14:54:36.278Z,31.33
2023-06-23T14:57:03.903Z,30.84
2023-06-23T14:59:31.508Z,30.55
2023-06-23T15:01:59.099Z,30.30
2023-06-23T15:04:26.973Z,30.23
2023-06-23T15:06:54.649Z,30.08
2023-06-23T15:09:23.618Z,30.81
2023-06-23T15:11:51.231Z,31.38
2023-06-23T15:14:19.254Z,31.57
2023-06-23T15:16:46.811Z,32.08
2023-06-23T15:19:14.532Z,32.40
2023-06-23T15:21:42.126Z,32.60
2023-06-23T15:24:09.962Z,32.68
2023-06-23T15:26:38.969Z,32.88
2023-06-23T15:29:07.742Z,33.02
2023-06-23T15:31:35.468Z,33.21
2023-06-23T15:34:03.083Z,33.29
2023-06-23T15:36:32.684Z,33.23
2023-06-23T15:39:01.576Z,32.90
2023-06-23T15:41:29.126Z,33.01
2023-06-23T15:43:58.041Z,33.21
2023-06-23T15:46:25.609Z,33.36
2023-06-23T15:48:53.180Z,33.44
2023-06-23T15:51:23.152Z,33.50
2023-06-23T15:53:50.776Z,33.60
2023-06-23T15:56:18.458Z,33.44
2023-06-23T15:58:46.056Z,33.55
2023-06-23T16:01:15.192Z,33.50
2023-06-23T16:03:43.031Z,33.52
2023-06-23T16:06:10.759Z,33.47
2023-06-23T16:08:38.342Z,33.30
2023-06-23T16:11:07.853Z,33.05
2023-06-23T16:13:37.341Z,33.20
2023-06-23T16:16:05.665Z,33.35
2023-06-23T16:18:34.723Z,32.78
2023-06-23T16:21:02.332Z,32.95
2023-06-23T16:23:29.901Z,33.01
2023-06-23T16:25:57.871Z,32.69
2023-06-23T16:28:25.518Z,32.94
2023-06-23T16:30:54.376Z,33.19
2023-06-23T16:33:22.061Z,33.14
2023-06-23T16:35:50.996Z,32.58
2023-06-23T16:38:18.572Z,31.73
2023-06-23T16:40:46.371Z,31.62
2023-06-23T16:43:14.254Z,31.86
2023-06-23T16:45:41.933Z,32.11
2023-06-23T16:48:09.545Z,32.06
2023-06-23T16:50:38.041Z,32.08
2023-06-23T16:53:08.920Z,32.16
2023-06-23T16:55:36.566Z,31.95
2023-06-23T16:58:04.231Z,32.10
2023-06-23T17:00:33.297Z,32.09
2023-06-23T17:03:01.199Z,32.33
2023-06-23T17:05:28.907Z,32.48
2023-06-23T17:07:56.504Z,32.49
2023-06-23T17:10:25.580Z,32.47
2023-06-23T17:12:53.376Z,32.46
2023-06-23T17:15:21.306Z,32.47
2023-06-23T17:17:48.995Z,32.49
2023-06-23T17:20:16.829Z,32.28
2023-06-23T17:22:44.438Z,32.14
2023-06-23T17:25:13.143Z,32.34
2023-06-23T17:27:42.121Z,32.39
2023-06-23T17:30:10.394Z,31.91
2023-06-23T17:32:38.170Z,32.18
2023-06-23T17:35:06.535Z,31.86
2023-06-23T17:37:34.296Z,31.69
2023-06-23T17:40:01.852Z,31.68
2023-06-23T17:42:29.532Z,31.91
2023-06-23T17:44:58.459Z,31.70
2023-06-23T17:47:27.108Z,31.66
2023-06-23T17:49:55.052Z,31.58
2023-06-23T17:52:22.846Z,31.59
2023-06-23T17:54:50.434Z,31.43
2023-06-23T17:57:18.999Z,30.94
2023-06-23T17:59:46.547Z,30.67
2023-06-23T18:02:21.024Z,30.34
2023-06-23T18:04:49.130Z,30.03
2023-06-23T18:07:17.232Z,29.66
2023-06-23T18:09:45.013Z,29.60
2023-06-23T18:12:12.555Z,29.44
2023-06-23T18:14:40.174Z,29.34
2023-06-23T18:17:07.915Z,29.14
2023-06-23T18:19:36.826Z,28.84
2023-06-23T18:22:04.787Z,28.77
2023-06-23T18:24:32.399Z,28.54
2023-06-23T18:26:59.966Z,28.45
2023-06-23T18:29:28.279Z,28.44
2023-06-23T18:32:13.533Z,28.24
2023-06-23T18:34:43.000Z,28.10
2023-06-23T18:37:12.053Z,27.91
2023-06-23T18:39:39.608Z,27.75
2023-06-23T18:42:07.979Z,27.55
2023-06-23T18:44:36.299Z,27.43
2023-06-23T18:47:04.239Z,27.29
2023-06-23T18:49:32.133Z,27.14
2023-06-23T18:52:01.160Z,26.98
2023-06-23T18:54:28.745Z,26.81
2023-06-23T18:56:58.581Z,26.71
2023-06-23T18:59:27.496Z,26.61
2023-06-23T19:01:55.316Z,26.53
2023-06-23T19:04:23.006Z,26.36
2023-06-23T19:06:51.070Z,26.20
2023-06-23T19:09:20.100Z,26.05
2023-06-23T19:11:47.647Z,25.98
2023-06-23T19:14:15.323Z,25.90
2023-06-23T19:16:42.901Z,25.78
2023-06-23T19:19:10.462Z,25.67
2023-06-23T19:21:38.168Z,25.46
2023-06-23T19:24:06.643Z,25.21
2023-06-23T19:26:35.697Z,25.19
2023-06-23T19:29:03.878Z,25.12
2023-06-23T19:31:31.524Z,24.86
2023-06-23T19:33:59.164Z,24.68
2023-06-23T19:36:26.757Z,24.66
2023-06-23T19:38:54.371Z,24.54
2023-06-23T19:41:21.983Z,24.46
2023-06-23T19:43:51.016Z,24.64
2023-06-23T19:46:18.638Z,24.20
2023-06-23T19:48:46.316Z,24.17
2023-06-23T19:51:13.837Z,24.25
2023-06-23T19:53:42.894Z,23.93
2023-06-23T19:56:10.546Z,23.64
2023-06-23T19:58:38.213Z,23.67
2023-06-23T20:01:07.197Z,23.95
2023-06-23T20:03:34.939Z,23.78
2023-06-23T20:06:02.679Z,23.64
2023-06-23T20:08:30.372Z,23.73
2023-06-23T20:10:57.911Z,23.82
2023-06-23T20:13:25.482Z,23.61
2023-06-23T20:15:53.071Z,23.58
2023-06-23T20:18:22.035Z,23.46
2023-06-23T20:20:50.023Z,23.42
2023-06-23T20:23:17.594Z,23.49
2023-06-23T20:25:45.234Z,23.33
2023-06-23T20:28:14.282Z,23.35
2023-06-23T20:30:41.877Z,23.28
2023-06-23T20:33:09.464Z,23.34
2023-06-23T20:35:38.508Z,23.08
2023-06-23T20:38:06.037Z,23.15
2023-06-23T20:40:33.851Z,23.19
2023-06-23T20:43:01.970Z,23.17
2023-06-23T20:45:29.519Z,23.18
2023-06-23T20:47:57.952Z,23.17
2023-06-23T20:50:25.618Z,23.15
2023-06-23T20:52:54.497Z,23.06
2023-06-23T20:55:22.067Z,22.99
2023-06-23T20:57:49.655Z,22.96
2023-06-23T21:00:18.118Z,22.92
2023-06-23T21:02:45.750Z,22.78
2023-06-23T21:05:13.385Z,22.73
2023-06-23T21:07:40.916Z,22.54
2023-06-23T21:12:43.581Z,22.49
2023-06-23T21:15:11.148Z,22.54
2023-06-23T21:20:10.286Z,22.45
2023-06-23T21:22:38.285Z,22.48
2023-06-23T21:25:06.376Z,22.46
2023-06-23T21:27:35.372Z,22.46
2023-06-23T21:30:04.535Z,22.33
2023-06-23T21:32:32.467Z,22.44
2023-06-23T21:35:00.056Z,22.51
2023-06-23T21:37:27.713Z,22.54
2023-06-23T21:39:55.435Z,22.43
2023-06-23T21:42:24.318Z,22.42
2023-06-23T21:44:53.597Z,22.41
2023-06-23T21:47:21.186Z,22.36
2023-06-23T21:49:48.923Z,22.28
2023-06-23T21:52:16.608Z,22.20
2023-06-23T21:54:45.467Z,22.11
2023-06-23T21:57:13.002Z,22.03
2023-06-23T21:59:40.581Z,22.02
2023-06-23T22:02:09.589Z,22.04
2023-06-23T22:04:37.238Z,21.93
2023-06-23T22:07:05.327Z,22.05
2023-06-23T22:09:33.112Z,21.99
2023-06-23T22:12:00.682Z,21.80
2023-06-23T22:14:28.313Z,21.87
2023-06-23T22:16:56.140Z,21.79
2023-06-23T22:19:25.154Z,21.66
2023-06-23T22:21:53.394Z,21.65
2023-06-23T22:24:20.941Z,21.59
2023-06-23T22:26:48.509Z,21.65
2023-06-23T22:29:16.930Z,21.57
2023-06-23T22:31:44.950Z,21.25
2023-06-23T22:34:12.580Z,21.40
2023-06-23T22:36:41.633Z,21.41
2023-06-23T22:39:09.250Z,21.44
2023-06-23T22:41:36.894Z,21.38
2023-06-23T22:44:04.934Z,21.39
2023-06-23T22:46:32.508Z,21.29
2023-06-23T22:49:00.115Z,21.09
2023-06-23T22:51:32.406Z,21.18
2023-06-23T22:54:01.456Z,21.24
2023-06-23T22:56:29.044Z,21.32
2023-06-23T22:58:56.624Z,21.19
2023-06-23T23:01:25.168Z,21.20
2023-06-23T23:03:52.892Z,21.16
2023-06-23T23:06:20.668Z,21.15
2023-06-23T23:08:49.561Z,20.97
2023-06-23T23:11:18.588Z,20.82
2023-06-23T23:13:46.150Z,20.67
2023-06-23T23:16:15.182Z,20.65
2023-06-23T23:18:44.531Z,20.64
2023-06-23T23:21:12.586Z,20.63
2023-06-23T23:23:40.432Z,20.64
2023-06-23T23:26:09.882Z,20.70
2023-06-23T23:28:43.266Z,20.79
2023-06-23T23:31:12.356Z,20.70
2023-06-23T23:33:40.754Z,20.66
2023-06-23T23:36:08.666Z,20.54
2023-06-23T23:38:36.201Z,20.43
2023-06-23T23:41:03.877Z,20.36
2023-06-23T23:43:31.493Z,20.27
2023-06-23T23:46:00.461Z,20.32
2023-06-23T23:48:28.304Z,20.35
2023-06-23T23:50:55.869Z,20.34
2023-06-23T23:53:23.453Z,20.38
2023-06-23T23:55:51.038Z,20.45
2023-06-23T23:58:18.742Z,20.17
